Time;durP1;ratioP1;P1;durP2;ratioP2;P2;SDS_P1;SDS_P2;PMS_P1;PMS_P2;Temp;Humidity;BMP_temperature;BMP_pressure;BME280_temperature;BME280_humidity;BME280_pressure;Samples;Min_cycle;Max_cycle;Signal;HPM_P1;HPM_P2
2022/03/31 00:02:10;;;;;;;1.50;0.32;;;13.50;53.40;;;;;;4997475;28;20081;-77
2022/03/31 00:04:38;;;;;;;1.13;0.30;;;13.40;53.00;;;;;;5008793;28;20346;-75
2022/03/31 00:07:07;;;;;;;0.85;0.30;;;13.30;52.90;;;;;;5005652;28;20125;-76
2022/03/31 00:09:33;;;;;;;2.72;0.30;;;13.30;53.50;;;;;;4995711;28;20054;-77
2022/03/31 00:11:59;;;;;;;1.80;0.30;;;13.20;54.30;;;;;;5003322;28;20060;-76
2022/03/31 00:14:27;;;;;;;0.98;0.30;;;13.30;53.80;;;;;;5002847;28;20050;-77
2022/03/31 00:16:54;;;;;;;3.58;0.40;;;13.30;53.90;;;;;;4978536;28;20057;-77
2022/03/31 00:19:20;;;;;;;3.15;0.40;;;13.40;54.00;;;;;;4995464;28;20454;-79
2022/03/31 00:22:29;;;;;;;1.58;0.52;;;13.40;53.80;;;;;;4995486;28;20090;-78
2022/03/31 00:24:55;;;;;;;1.15;0.17;;;13.40;53.10;;;;;;4955983;28;20050;-78
2022/03/31 00:27:21;;;;;;;2.88;0.20;;;13.40;53.80;;;;;;5014203;28;20365;-76
2022/03/31 00:29:47;;;;;;;2.67;0.32;;;13.40;53.90;;;;;;5015462;28;20077;-76
2022/03/31 00:32:13;;;;;;;1.08;0.10;;;13.40;53.90;;;;;;5004148;28;20469;-77
2022/03/31 00:34:39;;;;;;;3.15;0.30;;;13.40;53.80;;;;;;5004000;28;20050;-79
2022/03/31 00:37:05;;;;;;;3.33;0.65;;;13.40;53.80;;;;;;4993679;28;20047;-77
2022/03/31 00:39:34;;;;;;;1.02;0.20;;;13.40;53.90;;;;;;4995287;28;20060;-77
2022/03/31 00:42:02;;;;;;;2.40;0.40;;;13.40;53.80;;;;;;4995268;28;20066;-77
2022/03/31 00:44:29;;;;;;;1.17;0.20;;;13.40;53.50;;;;;;4978049;28;20090;-75
2022/03/31 00:46:56;;;;;;;2.42;0.43;;;13.30;53.50;;;;;;4995408;28;20082;-77
2022/03/31 00:49:24;;;;;;;2.13;0.20;;;13.40;53.50;;;;;;4995150;28;20361;-77
2022/03/31 00:51:52;;;;;;;6.05;0.45;;;13.40;53.40;;;;;;4997241;28;20429;-77
2022/03/31 00:54:20;;;;;;;1.58;0.30;;;13.30;53.50;;;;;;5014520;28;20050;-76
2022/03/31 00:56:49;;;;;;;1.80;0.20;;;13.20;53.20;;;;;;5014293;28;20369;-76
2022/03/31 00:59:15;;;;;;;1.98;0.30;;;13.30;53.50;;;;;;4984624;28;20061;-75
2022/03/31 01:01:43;;;;;;;1.27;0.22;;;13.30;53.60;;;;;;4998698;28;20076;-77
2022/03/31 01:04:09;;;;;;;0.68;0.20;;;13.20;53.40;;;;;;4988518;28;20050;-76
2022/03/31 01:06:35;;;;;;;2.55;0.20;;;13.30;53.60;;;;;;4989146;28;20054;-79
2022/03/31 01:09:05;;;;;;;2.97;0.68;;;13.20;53.50;;;;;;4981780;28;20521;-78
2022/03/31 01:11:31;;;;;;;1.60;0.40;;;13.30;53.60;;;;;;4998547;28;20043;-77
2022/03/31 01:13:58;;;;;;;1.70;0.32;;;13.30;53.70;;;;;;4998397;28;20085;-78
2022/03/31 01:16:24;;;;;;;1.08;0.10;;;13.30;53.40;;;;;;4998610;28;20377;-77
2022/03/31 01:18:53;;;;;;;2.67;0.28;;;13.30;53.10;;;;;;4997717;28;20047;-76
2022/03/31 01:21:19;;;;;;;0.63;0.20;;;13.30;53.30;;;;;;4998003;28;20082;-77
2022/03/31 01:23:46;;;;;;;5.00;0.45;;;13.30;53.30;;;;;;4981415;28;20077;-76
2022/03/31 01:26:13;;;;;;;2.35;0.30;;;13.30;53.30;;;;;;4999292;28;20057;-78
2022/03/31 01:28:42;;;;;;;2.83;0.20;;;13.30;53.10;;;;;;4998789;28;20109;-77
2022/03/31 01:31:09;;;;;;;4.03;0.50;;;13.30;52.90;;;;;;4999164;28;20077;-76
2022/03/31 01:33:34;;;;;;;1.23;0.28;;;13.30;52.80;;;;;;5018596;28;20088;-75
2022/03/31 01:36:04;;;;;;;2.10;0.47;;;13.30;52.60;;;;;;4980115;28;20481;-78
2022/03/31 01:38:30;;;;;;;2.30;0.35;;;13.20;52.40;;;;;;4971184;28;20050;-77
2022/03/31 01:40:58;;;;;;;1.83;0.30;;;13.10;52.50;;;;;;5017199;28;20060;-76
2022/03/31 01:43:24;;;;;;;3.13;0.70;;;13.10;52.70;;;;;;5000302;28;20126;-76
2022/03/31 01:45:52;;;;;;;1.30;0.20;;;13.10;52.90;;;;;;5017750;28;20054;-76
2022/03/31 01:48:18;;;;;;;3.83;0.52;;;13.10;52.90;;;;;;5016888;28;20046;-75
2022/03/31 01:50:44;;;;;;;1.52;0.40;;;13.10;52.80;;;;;;5017155;28;20052;-75
2022/03/31 01:53:10;;;;;;;1.70;0.20;;;13.10;53.10;;;;;;5016747;28;20050;-78
2022/03/31 01:55:36;;;;;;;1.45;0.50;;;13.10;53.20;;;;;;5016727;28;20100;-78
2022/03/31 01:58:03;;;;;;;3.30;0.47;;;13.10;53.30;;;;;;5000775;28;20074;-79
2022/03/31 02:00:29;;;;;;;2.45;0.32;;;13.10;53.40;;;;;;4984319;28;20053;-78
2022/03/31 02:02:55;;;;;;;3.33;0.40;;;13.10;53.20;;;;;;4995304;28;20046;-76
2022/03/31 02:05:21;;;;;;;2.45;0.75;;;13.10;53.20;;;;;;5017122;28;20049;-75
2022/03/31 02:07:47;;;;;;;1.95;0.30;;;13.20;53.00;;;;;;5017020;28;20049;-76
2022/03/31 02:10:14;;;;;;;3.05;0.38;;;13.20;52.90;;;;;;4999646;28;20124;-75
2022/03/31 02:12:41;;;;;;;3.75;0.50;;;13.10;52.90;;;;;;5016718;28;20128;-76
2022/03/31 02:15:07;;;;;;;0.82;0.30;;;13.10;53.30;;;;;;5017188;28;20038;-79
2022/03/31 02:17:33;;;;;;;2.95;0.35;;;13.10;53.40;;;;;;5016620;28;20123;-75
2022/03/31 02:19:59;;;;;;;2.53;0.50;;;13.10;53.50;;;;;;5010124;28;20058;-77
2022/03/31 02:22:25;;;;;;;3.83;0.47;;;13.00;53.40;;;;;;4997332;28;20137;-78
2022/03/31 02:24:50;;;;;;;2.40;0.30;;;12.90;53.50;;;;;;5002223;28;20053;-76
2022/03/31 02:27:16;;;;;;;1.80;0.43;;;12.90;53.90;;;;;;5016881;28;20056;-76
2022/03/31 02:29:42;;;;;;;1.45;0.40;;;12.80;54.00;;;;;;5016829;28;20061;-77
2022/03/31 02:32:08;;;;;;;1.42;0.40;;;12.80;54.20;;;;;;5005382;28;20062;-76
2022/03/31 02:34:34;;;;;;;1.83;0.50;;;12.80;54.20;;;;;;5008680;28;20128;-77
2022/03/31 02:37:00;;;;;;;3.75;0.65;;;12.80;54.40;;;;;;5015124;28;20057;-78
2022/03/31 02:39:29;;;;;;;1.67;0.47;;;12.70;54.80;;;;;;4997583;28;20057;-77
2022/03/31 02:41:57;;;;;;;2.85;0.98;;;12.70;55.30;;;;;;4996551;28;20054;-78
2022/03/31 02:44:23;;;;;;;1.73;0.55;;;12.70;55.50;;;;;;4987770;28;20050;-76
2022/03/31 02:46:49;;;;;;;1.10;0.73;;;12.70;55.60;;;;;;4996631;28;20085;-77
2022/03/31 02:49:15;;;;;;;2.17;0.70;;;12.70;55.80;;;;;;4996832;28;20097;-77
2022/03/31 02:51:41;;;;;;;3.28;1.15;;;12.60;55.90;;;;;;4979562;28;20053;-75
2022/03/31 02:56:51;;;;;;;4.30;0.85;;;12.50;56.30;;;;;;4995998;28;20042;-77
2022/03/31 02:59:17;;;;;;;2.63;0.70;;;12.50;56.50;;;;;;4996658;28;20045;-77
2022/03/31 03:01:43;;;;;;;3.20;1.00;;;12.50;56.60;;;;;;4996355;28;20046;-77
2022/03/31 03:04:10;;;;;;;2.30;0.63;;;12.50;56.80;;;;;;4997038;28;20122;-76
2022/03/31 03:06:37;;;;;;;2.00;1.15;;;12.50;57.00;;;;;;4996819;28;20052;-77
2022/03/31 03:09:03;;;;;;;3.45;1.10;;;12.40;56.90;;;;;;4979144;28;20058;-78
2022/03/31 03:11:29;;;;;;;2.92;1.10;;;12.50;57.10;;;;;;4995881;28;20433;-76
2022/03/31 03:13:55;;;;;;;3.63;1.25;;;12.40;57.10;;;;;;4996139;28;20082;-76
2022/03/31 03:16:21;;;;;;;2.97;1.00;;;12.40;57.20;;;;;;4997173;28;20046;-75
2022/03/31 03:18:47;;;;;;;2.17;0.90;;;12.40;57.50;;;;;;4996358;28;20125;-76
2022/03/31 03:21:13;;;;;;;2.20;0.95;;;12.40;57.50;;;;;;4995596;28;20130;-76
2022/03/31 03:23:40;;;;;;;2.90;1.00;;;12.40;57.40;;;;;;4985963;28;20050;-79
2022/03/31 03:26:06;;;;;;;3.30;1.20;;;12.40;57.40;;;;;;5015487;28;20085;-77
2022/03/31 03:28:36;;;;;;;4.70;1.33;;;12.50;57.50;;;;;;5016058;28;20077;-77
2022/03/31 03:31:03;;;;;;;2.45;1.00;;;12.50;57.50;;;;;;5005899;28;20381;-78
2022/03/31 03:33:29;;;;;;;1.60;0.95;;;12.40;57.40;;;;;;4997940;28;20054;-77
2022/03/31 03:35:55;;;;;;;2.30;0.80;;;12.40;57.50;;;;;;5015811;28;20057;-77
2022/03/31 03:38:20;;;;;;;3.08;1.08;;;12.50;57.60;;;;;;5014837;28;20452;-76
2022/03/31 03:40:46;;;;;;;2.50;1.15;;;12.50;57.50;;;;;;5013015;28;20054;-75
2022/03/31 03:43:12;;;;;;;3.90;1.00;;;12.50;57.30;;;;;;4995634;28;20423;-76
2022/03/31 03:45:38;;;;;;;1.25;0.75;;;12.50;57.30;;;;;;4995629;28;20042;-78
2022/03/31 03:48:06;;;;;;;4.05;1.35;;;12.60;57.30;;;;;;4995607;28;20049;-77
2022/03/31 03:50:33;;;;;;;1.80;0.60;;;12.50;57.10;;;;;;4995760;28;20137;-77
2022/03/31 03:53:03;;;;;;;2.20;1.20;;;12.50;57.10;;;;;;4995537;28;20050;-75
2022/03/31 03:55:32;;;;;;;2.25;0.70;;;12.30;56.40;;;;;;4995420;28;20057;-75
2022/03/31 03:57:59;;;;;;;2.85;0.70;;;12.30;56.90;;;;;;4995612;28;20053;-76
2022/03/31 04:00:25;;;;;;;1.92;0.73;;;12.20;56.50;;;;;;4995793;28;20370;-75
2022/03/31 04:02:51;;;;;;;1.65;0.60;;;12.30;56.80;;;;;;4979608;28;20050;-77
2022/03/31 04:05:17;;;;;;;2.80;0.95;;;12.10;56.30;;;;;;4995761;28;20335;-78
2022/03/31 04:07:43;;;;;;;1.83;0.52;;;12.10;56.30;;;;;;4979011;28;20366;-76
2022/03/31 04:10:10;;;;;;;2.20;0.77;;;12.10;56.60;;;;;;4995578;28;20046;-77
2022/03/31 04:12:38;;;;;;;2.15;0.52;;;11.90;56.60;;;;;;4994374;28;20042;-76
2022/03/31 04:15:05;;;;;;;1.40;0.80;;;11.90;57.00;;;;;;4995416;28;20050;-76
2022/03/31 04:17:31;;;;;;;1.58;0.50;;;11.90;57.20;;;;;;4995701;28;20054;-76
2022/03/31 04:19:56;;;;;;;2.78;0.63;;;12.00;57.20;;;;;;4995087;28;20053;-76
2022/03/31 04:22:22;;;;;;;1.33;0.40;;;11.80;57.00;;;;;;4977871;28;20046;-76
2022/03/31 04:24:48;;;;;;;2.38;0.85;;;11.70;57.30;;;;;;4995073;28;20050;-77
2022/03/31 04:27:14;;;;;;;1.13;0.43;;;11.70;57.50;;;;;;4978783;28;20046;-77
2022/03/31 04:29:40;;;;;;;1.83;0.30;;;11.70;58.10;;;;;;4994995;28;20488;-76
2022/03/31 04:32:06;;;;;;;1.27;0.47;;;11.70;57.70;;;;;;5005398;28;20073;-77
2022/03/31 04:34:32;;;;;;;2.42;0.40;;;11.70;57.90;;;;;;5010036;28;20373;-76
2022/03/31 04:36:58;;;;;;;2.83;0.57;;;11.70;57.80;;;;;;4999058;28;20062;-76
2022/03/31 04:39:24;;;;;;;1.55;0.30;;;11.70;58.00;;;;;;4998844;28;20136;-81
2022/03/31 04:41:50;;;;;;;2.67;0.55;;;11.90;58.50;;;;;;5012195;28;20089;-78
2022/03/31 04:44:16;;;;;;;2.72;0.57;;;12.00;58.30;;;;;;5001695;28;20057;-76
2022/03/31 04:46:49;;;;;;;1.95;0.50;;;12.20;57.50;;;;;;4998819;28;20050;-78
2022/03/31 04:49:15;;;;;;;1.85;0.50;;;12.30;56.60;;;;;;4998905;28;20042;-79
2022/03/31 04:51:50;;;;;;;3.65;0.70;;;12.40;56.10;;;;;;4981650;28;20327;-76
2022/03/31 04:54:33;;;;;;;2.53;0.70;;;12.50;55.50;;;;;;5005262;28;20481;-77
2022/03/31 04:57:01;;;;;;;1.60;0.60;;;12.60;55.70;;;;;;5017896;28;20038;-78
2022/03/31 04:59:27;;;;;;;3.55;0.60;;;12.60;56.20;;;;;;5009730;28;20034;-76
2022/03/31 05:01:52;;;;;;;2.40;0.40;;;12.70;56.40;;;;;;4991284;28;20038;-73
2022/03/31 05:26:48;;;;;;;6.97;0.98;;;14.80;55.90;;;;;;4986061;28;20530;-79
2022/03/31 05:29:22;;;;;;;1.27;0.30;;;15.00;55.60;;;;;;4963569;28;20054;-78
2022/03/31 05:31:51;;;;;;;2.10;0.20;;;15.00;55.30;;;;;;4972798;28;20425;-80
2022/03/31 05:34:18;;;;;;;3.17;0.35;;;15.10;55.40;;;;;;4998130;28;20038;-79
2022/03/31 05:37:15;;;;;;;4.60;0.47;;;14.90;55.20;;;;;;4980492;28;20070;-80
2022/03/31 05:39:39;;;;;;;2.17;0.30;;;14.90;55.70;;;;;;4979931;28;20057;-81
2022/03/31 05:46:32;;;;;;;2.00;0.30;;;15.10;55.40;;;;;;4997249;28;20093;-80
2022/03/31 05:49:00;;;;;;;1.02;0.15;;;15.20;55.20;;;;;;4997393;28;20085;-80
2022/03/31 05:51:26;;;;;;;3.10;0.30;;;15.30;56.00;;;;;;4964401;28;20450;-79
2022/03/31 05:53:52;;;;;;;9.55;0.70;;;15.40;55.40;;;;;;4997689;28;20050;-79
2022/03/31 05:56:19;;;;;;;4.47;0.13;;;15.40;53.40;;;;;;4980241;28;20057;-78
2022/03/31 05:58:45;;;;;;;4.30;0.20;;;15.40;55.10;;;;;;4997539;28;20131;-80
2022/03/31 06:01:11;;;;;;;2.35;0.30;;;15.50;55.00;;;;;;4997163;28;20133;-78
2022/03/31 06:03:36;;;;;;;3.22;0.50;;;15.60;54.90;;;;;;4964200;28;20156;-78
2022/03/31 06:06:02;;;;;;;4.30;0.20;;;15.70;54.70;;;;;;4980889;28;20054;-81
2022/03/31 06:08:28;;;;;;;4.13;0.35;;;15.80;54.50;;;;;;4980485;28;20050;-80
2022/03/31 06:10:57;;;;;;;1.42;0.28;;;15.80;54.60;;;;;;4997159;28;20045;-81
2022/03/31 06:13:28;;;;;;;3.88;0.40;;;15.90;54.00;;;;;;4980337;28;20042;-78
2022/03/31 06:15:54;;;;;;;7.43;0.47;;;16.00;54.30;;;;;;4997127;28;20442;-77
2022/03/31 06:18:22;;;;;;;6.57;0.68;;;16.00;54.00;;;;;;4979735;28;20065;-77
2022/03/31 06:20:47;;;;;;;8.52;1.05;;;16.00;53.40;;;;;;4997196;28;20038;-77
2022/03/31 06:23:13;;;;;;;8.40;0.70;;;16.00;54.30;;;;;;4997493;28;20449;-76
2022/03/31 06:25:42;;;;;;;11.35;1.33;;;16.00;55.00;;;;;;4997548;28;20046;-79
2022/03/31 06:28:14;;;;;;;11.60;1.40;;;16.20;56.10;;;;;;4980234;28;20065;-79
2022/03/31 06:30:39;;;;;;;12.38;1.02;;;16.20;55.60;;;;;;4996986;28;20039;-78
2022/03/31 06:33:05;;;;;;;18.85;1.23;;;16.30;55.70;;;;;;4979060;28;20482;-79
2022/03/31 06:35:31;;;;;;;7.15;0.88;;;16.30;55.80;;;;;;4979540;28;20030;-79
2022/03/31 06:37:57;;;;;;;10.85;0.70;;;16.40;55.60;;;;;;4980378;28;20513;-79
2022/03/31 06:40:22;;;;;;;11.93;1.60;;;16.50;55.30;;;;;;4996691;28;20073;-80
2022/03/31 06:42:50;;;;;;;6.60;0.60;;;16.50;55.10;;;;;;4979286;28;20046;-78
2022/03/31 06:45:16;;;;;;;7.35;0.90;;;16.30;54.80;;;;;;4996615;28;20050;-76
2022/03/31 06:47:43;;;;;;;8.25;0.73;;;16.30;55.00;;;;;;4996678;28;20054;-78
2022/03/31 06:50:10;;;;;;;10.10;1.08;;;16.40;54.90;;;;;;4996790;28;20394;-76
2022/03/31 06:52:37;;;;;;;5.00;1.00;;;16.40;54.80;;;;;;4996412;28;20058;-78
2022/03/31 06:55:04;;;;;;;6.18;1.08;;;16.50;54.70;;;;;;4996473;28;20127;-78
2022/03/31 06:57:30;;;;;;;5.00;0.75;;;16.60;54.50;;;;;;4979634;28;20050;-76
2022/03/31 06:59:55;;;;;;;6.45;1.00;;;16.60;54.40;;;;;;4979019;28;20065;-76
2022/03/31 07:02:21;;;;;;;4.85;0.63;;;16.60;54.20;;;;;;5006773;28;20050;-77
2022/03/31 07:04:47;;;;;;;2.90;0.30;;;16.70;54.10;;;;;;5015563;28;20441;-79
2022/03/31 07:07:13;;;;;;;2.47;0.45;;;16.70;54.00;;;;;;5015135;28;20121;-79
2022/03/31 07:09:38;;;;;;;3.65;0.63;;;16.70;54.00;;;;;;5015773;28;20377;-80
2022/03/31 07:12:05;;;;;;;6.85;1.13;;;16.70;53.80;;;;;;5015865;28;20050;-79
2022/03/31 07:14:35;;;;;;;4.38;0.32;;;16.70;53.70;;;;;;5015748;28;20049;-78
2022/03/31 07:17:01;;;;;;;2.72;0.40;;;16.70;53.50;;;;;;4980920;28;20049;-79
2022/03/31 07:19:27;;;;;;;5.85;0.95;;;16.70;53.60;;;;;;4998172;28;20346;-80
2022/03/31 07:21:52;;;;;;;4.32;0.45;;;16.70;53.70;;;;;;5016178;28;20049;-77
2022/03/31 07:24:18;;;;;;;5.43;0.40;;;16.70;53.80;;;;;;4998248;28;20432;-77
2022/03/31 07:26:44;;;;;;;5.13;0.52;;;16.60;53.90;;;;;;4997955;28;20045;-76
2022/03/31 07:29:09;;;;;;;7.80;0.82;;;16.60;53.80;;;;;;5015592;28;20045;-77
2022/03/31 07:31:35;;;;;;;8.02;0.60;;;16.60;54.00;;;;;;4994555;28;20378;-74
2022/03/31 07:34:01;;;;;;;3.28;0.50;;;16.60;54.00;;;;;;4996083;28;20116;-77
2022/03/31 07:36:27;;;;;;;7.07;1.02;;;16.50;54.00;;;;;;4978878;28;20122;-77
2022/03/31 07:38:52;;;;;;;9.65;1.15;;;16.50;54.20;;;;;;4996118;28;20078;-77
2022/03/31 07:41:18;;;;;;;6.28;0.50;;;16.40;54.20;;;;;;4995527;28;20465;-76
2022/03/31 07:43:44;;;;;;;2.83;0.40;;;16.40;54.40;;;;;;4995566;28;20061;-78
2022/03/31 07:46:11;;;;;;;7.82;0.50;;;16.30;54.50;;;;;;4996415;28;20046;-76
2022/03/31 07:48:37;;;;;;;6.57;1.13;;;16.20;55.20;;;;;;4978574;28;20093;-76
2022/03/31 07:51:03;;;;;;;5.53;0.50;;;16.20;54.70;;;;;;5014172;28;20104;-78
2022/03/31 07:53:35;;;;;;;4.13;0.50;;;16.10;54.90;;;;;;5014922;28;20045;-77
2022/03/31 07:56:03;;;;;;;3.75;0.40;;;16.10;55.00;;;;;;5015145;28;20386;-79
2022/03/31 07:58:29;;;;;;;1.65;0.30;;;16.00;55.00;;;;;;4998557;28;20120;-76
2022/03/31 08:00:59;;;;;;;2.70;0.30;;;16.00;55.10;;;;;;5014497;28;20038;-81
2022/03/31 08:03:24;;;;;;;1.52;0.20;;;16.00;55.10;;;;;;5009547;28;20366;-76
2022/03/31 08:05:51;;;;;;;1.75;0.40;;;15.90;55.00;;;;;;4995162;28;20046;-77
2022/03/31 08:08:19;;;;;;;2.95;0.57;;;15.90;54.80;;;;;;4998268;28;20046;-77
2022/03/31 08:10:45;;;;;;;3.47;0.40;;;16.00;54.80;;;;;;4998684;28;20065;-81
2022/03/31 08:13:10;;;;;;;3.70;0.40;;;15.90;54.80;;;;;;4999117;28;20440;-80
2022/03/31 08:15:37;;;;;;;2.50;0.40;;;16.00;54.80;;;;;;4997933;28;20149;-79
2022/03/31 08:18:04;;;;;;;1.02;0.25;;;16.00;54.80;;;;;;4999120;28;20096;-77
2022/03/31 08:20:30;;;;;;;2.42;0.47;;;16.00;54.90;;;;;;4979484;28;20133;-79
2022/03/31 08:22:56;;;;;;;1.25;0.40;;;16.00;54.80;;;;;;4999701;28;20066;-79
2022/03/31 08:25:21;;;;;;;2.20;0.40;;;16.00;54.70;;;;;;4999474;28;20458;-76
2022/03/31 08:27:47;;;;;;;1.90;0.52;;;16.00;54.50;;;;;;4999173;28;20041;-77
2022/03/31 08:30:16;;;;;;;5.72;0.68;;;16.00;54.50;;;;;;4999244;28;20125;-77
2022/03/31 08:32:43;;;;;;;4.00;0.50;;;16.00;54.50;;;;;;4982441;28;20147;-76
2022/03/31 08:35:10;;;;;;;2.25;0.30;;;15.90;54.60;;;;;;4999440;28;20359;-79
2022/03/31 08:37:37;;;;;;;2.90;0.88;;;15.90;54.70;;;;;;4999066;28;20085;-79
2022/03/31 08:40:06;;;;;;;5.03;0.70;;;15.90;54.70;;;;;;4982114;28;20065;-79
2022/03/31 08:42:32;;;;;;;3.45;0.77;;;15.90;54.80;;;;;;4981520;28;20058;-79
2022/03/31 08:45:00;;;;;;;1.95;0.40;;;15.80;54.80;;;;;;4998208;28;20054;-76
2022/03/31 08:47:27;;;;;;;2.85;1.00;;;15.80;54.80;;;;;;4998774;28;20050;-78
2022/03/31 08:49:56;;;;;;;1.67;0.50;;;15.80;55.00;;;;;;4981590;28;20086;-76
2022/03/31 08:52:23;;;;;;;1.73;0.70;;;15.70;54.90;;;;;;4998733;28;20061;-77
2022/03/31 08:54:49;;;;;;;2.70;0.95;;;15.70;55.00;;;;;;4981910;28;20518;-78
2022/03/31 08:57:17;;;;;;;2.55;0.40;;;15.70;55.10;;;;;;4999054;28;20050;-78
2022/03/31 08:59:43;;;;;;;1.83;0.50;;;15.60;55.10;;;;;;4981552;28;20050;-79
2022/03/31 09:02:09;;;;;;;2.10;0.47;;;15.60;55.20;;;;;;4998327;28;20081;-76
2022/03/31 09:04:35;;;;;;;1.40;0.50;;;15.60;55.30;;;;;;4998177;28;20484;-79
2022/03/31 09:07:03;;;;;;;3.45;0.47;;;15.50;55.30;;;;;;4998486;28;20044;-75
2022/03/31 09:09:29;;;;;;;1.45;0.65;;;15.50;55.30;;;;;;4998489;28;20113;-76
2022/03/31 09:11:54;;;;;;;1.17;0.75;;;15.50;55.30;;;;;;4998835;28;20046;-78
2022/03/31 09:14:31;;;;;;;1.13;0.40;;;15.50;55.40;;;;;;4998569;28;20077;-77
2022/03/31 09:17:10;;;;;;;1.15;0.50;;;15.40;55.30;;;;;;4992598;28;20065;-76
2022/03/31 09:19:35;;;;;;;1.35;0.55;;;15.40;55.40;;;;;;5016610;28;20050;-78
2022/03/31 09:22:01;;;;;;;1.85;0.52;;;15.40;55.50;;;;;;5018107;28;20461;-79
2022/03/31 09:24:29;;;;;;;1.77;0.40;;;15.30;55.60;;;;;;5017731;28;20437;-77
2022/03/31 09:26:58;;;;;;;2.42;0.65;;;15.30;55.50;;;;;;5000636;28;20052;-76
2022/03/31 09:29:26;;;;;;;1.42;0.50;;;15.30;55.50;;;;;;5018039;28;20042;-77
2022/03/31 09:31:53;;;;;;;1.05;0.30;;;15.30;55.60;;;;;;5009879;28;20046;-79
2022/03/31 09:34:20;;;;;;;1.45;0.52;;;15.30;55.60;;;;;;4998208;28;20107;-75
2022/03/31 09:36:51;;;;;;;2.00;0.40;;;15.30;55.60;;;;;;4997829;28;20469;-77
2022/03/31 09:39:19;;;;;;;0.80;0.30;;;15.30;55.50;;;;;;4978756;28;20046;-76
2022/03/31 09:41:47;;;;;;;3.17;0.50;;;15.30;55.50;;;;;;4997958;28;20046;-78
2022/03/31 09:44:16;;;;;;;1.20;0.50;;;15.30;55.50;;;;;;4997695;28;20053;-77
2022/03/31 09:46:44;;;;;;;2.13;0.50;;;15.30;55.50;;;;;;4980742;28;20046;-79
2022/03/31 09:49:25;;;;;;;0.95;0.40;;;15.30;55.50;;;;;;4997797;28;20543;-78
2022/03/31 09:51:57;;;;;;;1.88;0.47;;;15.30;55.50;;;;;;4974101;28;20112;-76
2022/03/31 09:54:27;;;;;;;1.15;0.40;;;15.20;55.50;;;;;;4980883;28;20054;-78
2022/03/31 09:56:56;;;;;;;1.55;0.60;;;15.20;55.60;;;;;;4997684;28;20050;-79
2022/03/31 09:59:31;;;;;;;0.82;0.50;;;15.20;55.70;;;;;;4980589;28;20100;-77
2022/03/31 10:01:57;;;;;;;0.90;0.40;;;15.20;55.70;;;;;;5005888;28;20046;-76
2022/03/31 10:04:24;;;;;;;1.65;0.50;;;15.20;55.70;;;;;;5002438;28;20056;-76
2022/03/31 10:06:50;;;;;;;0.93;0.50;;;15.20;55.80;;;;;;4980655;28;20046;-76
2022/03/31 10:09:17;;;;;;;1.38;0.47;;;15.10;55.80;;;;;;4980401;28;20359;-78
2022/03/31 10:11:46;;;;;;;1.10;0.50;;;15.10;56.50;;;;;;4997507;28;20063;-79
2022/03/31 10:14:27;;;;;;;0.75;0.30;;;15.10;55.90;;;;;;4977549;28;20046;-77
2022/03/31 10:16:54;;;;;;;2.17;0.52;;;15.10;55.80;;;;;;4990197;28;20050;-78
2022/03/31 10:19:29;;;;;;;1.58;0.50;;;15.10;55.80;;;;;;4980026;28;20064;-76
2022/03/31 10:25:11;;;;;;;1.15;0.40;;;15.10;55.70;;;;;;4990172;28;20093;-76
2022/03/31 10:27:40;;;;;;;1.40;0.50;;;15.00;55.90;;;;;;4980012;28;20130;-78
2022/03/31 10:30:07;;;;;;;0.93;0.50;;;15.10;56.00;;;;;;4979409;28;20484;-76
2022/03/31 10:32:33;;;;;;;0.98;0.50;;;15.00;56.00;;;;;;4997110;28;20061;-75
2022/03/31 10:34:59;;;;;;;1.70;0.70;;;15.00;56.10;;;;;;5014872;28;20469;-75
2022/03/31 10:37:34;;;;;;;0.80;0.68;;;15.00;56.10;;;;;;5016096;28;20061;-73
2022/03/31 10:40:03;;;;;;;1.30;0.47;;;15.00;56.00;;;;;;5015978;28;20441;-75
2022/03/31 10:42:29;;;;;;;1.27;0.52;;;15.00;56.10;;;;;;4998952;28;20050;-73
2022/03/31 10:45:10;;;;;;;0.75;0.35;;;15.00;56.10;;;;;;5016427;28;20068;-74
2022/03/31 10:47:37;;;;;;;0.93;0.45;;;15.00;55.90;;;;;;5016398;28;20136;-75
2022/03/31 10:50:04;;;;;;;0.98;0.60;;;15.00;56.00;;;;;;4996419;28;20046;-76
2022/03/31 10:52:32;;;;;;;1.30;0.60;;;15.00;55.90;;;;;;4996427;28;20042;-74
2022/03/31 10:55:19;;;;;;;1.15;0.50;;;14.90;55.90;;;;;;4978883;28;20050;-73
2022/03/31 10:57:45;;;;;;;0.80;0.30;;;14.90;55.80;;;;;;4992372;28;20050;-74
2022/03/31 11:00:14;;;;;;;0.90;0.57;;;15.00;56.00;;;;;;4996685;28;20049;-75
2022/03/31 11:02:52;;;;;;;2.70;1.05;;;15.00;56.00;;;;;;4979371;28;20082;-76
2022/03/31 11:05:21;;;;;;;0.85;0.45;;;14.80;54.50;;;;;;4978981;28;20053;-79
2022/03/31 11:08:04;;;;;;;3.38;0.75;;;14.70;55.40;;;;;;4996349;28;20096;-78
2022/03/31 11:10:41;;;;;;;1.13;0.60;;;14.70;55.40;;;;;;4996424;28;20445;-79
2022/03/31 11:13:08;;;;;;;2.67;0.68;;;14.70;55.60;;;;;;4995651;28;20042;-77
2022/03/31 11:15:34;;;;;;;1.38;0.40;;;14.80;55.90;;;;;;4978682;28;20045;-78
2022/03/31 11:18:03;;;;;;;3.05;1.10;;;14.80;55.80;;;;;;4979329;28;20064;-82
2022/03/31 11:20:29;;;;;;;5.63;1.90;;;14.80;56.00;;;;;;4963501;28;20046;-77
2022/03/31 11:23:00;;;;;;;2.05;0.77;;;14.90;57.00;;;;;;4979976;28;20053;-78
2022/03/31 11:25:27;;;;;;;2.28;1.27;;;14.90;56.60;;;;;;4996086;28;20046;-79
2022/03/31 11:27:53;;;;;;;3.40;1.10;;;14.90;56.40;;;;;;4995997;28;20331;-78
2022/03/31 11:30:30;;;;;;;4.22;1.02;;;14.90;56.50;;;;;;4995890;28;20129;-81
2022/03/31 11:32:56;;;;;;;4.35;1.10;;;14.90;56.80;;;;;;4994170;28;20064;-78
2022/03/31 11:35:27;;;;;;;4.07;0.95;;;14.90;57.00;;;;;;5017428;28;20041;-78
2022/03/31 11:37:59;;;;;;;4.32;1.25;;;14.90;57.30;;;;;;5035198;28;20193;-79
2022/03/31 11:40:28;;;;;;;1.48;0.95;;;14.90;57.50;;;;;;5018350;28;20103;-79
2022/03/31 11:42:56;;;;;;;3.33;0.80;;;14.90;57.60;;;;;;5034643;28;20065;-78
2022/03/31 11:45:33;;;;;;;4.57;0.88;;;14.80;57.70;;;;;;5017580;28;20049;-79
2022/03/31 11:48:08;;;;;;;3.03;1.23;;;14.90;57.90;;;;;;5032759;28;20113;-77
2022/03/31 11:50:39;;;;;;;1.85;0.73;;;14.80;57.80;;;;;;5026644;28;20334;-78
2022/03/31 11:53:25;;;;;;;4.95;1.05;;;14.80;57.80;;;;;;5014918;28;20326;-81
2022/03/31 11:56:01;;;;;;;3.63;0.90;;;14.80;57.30;;;;;;5012759;28;20361;-80
2022/03/31 11:58:33;;;;;;;2.00;0.65;;;14.80;57.10;;;;;;5014952;28;20046;-78
2022/03/31 12:00:59;;;;;;;3.05;0.98;;;14.80;56.90;;;;;;4996452;28;20049;-79
2022/03/31 12:03:38;;;;;;;1.42;0.60;;;14.80;56.90;;;;;;4995450;28;20047;-79
2022/03/31 12:06:06;;;;;;;4.00;0.90;;;14.80;56.70;;;;;;4995693;28;20125;-78
2022/03/31 12:08:33;;;;;;;1.75;0.80;;;14.80;56.80;;;;;;4978898;28;20132;-78
2022/03/31 12:10:59;;;;;;;1.95;0.73;;;14.80;56.80;;;;;;4978336;28;20042;-79
2022/03/31 12:13:27;;;;;;;3.15;0.88;;;14.80;56.70;;;;;;4978372;28;20042;-79
2022/03/31 12:16:07;;;;;;;3.28;0.80;;;14.80;56.70;;;;;;4995764;28;20055;-77
2022/03/31 12:18:35;;;;;;;2.67;0.70;;;14.80;56.60;;;;;;4995084;28;20093;-79
2022/03/31 12:21:06;;;;;;;2.03;0.70;;;14.80;56.70;;;;;;4978530;28;20494;-81
2022/03/31 12:23:32;;;;;;;1.98;0.90;;;14.80;56.60;;;;;;4978300;28;20046;-80
2022/03/31 12:25:58;;;;;;;1.33;0.80;;;14.90;56.70;;;;;;4995363;28;20050;-78
2022/03/31 12:28:24;;;;;;;2.22;0.68;;;14.80;56.60;;;;;;4978154;28;20124;-78
2022/03/31 12:30:52;;;;;;;0.93;0.70;;;14.80;56.60;;;;;;4995714;28;20058;-81
2022/03/31 12:33:36;;;;;;;1.70;0.60;;;14.90;56.60;;;;;;5013150;28;20060;-80
2022/03/31 12:36:04;;;;;;;1.17;0.65;;;14.90;56.60;;;;;;4997685;28;20133;-78
2022/03/31 12:38:43;;;;;;;2.95;0.98;;;14.90;56.50;;;;;;4997557;28;20068;-77
2022/03/31 12:41:33;;;;;;;2.17;0.80;;;14.90;56.60;;;;;;5014774;28;20121;-77
2022/03/31 12:44:03;;;;;;;7.45;0.70;;;14.90;55.80;;;;;;5010657;28;20035;-77
2022/03/31 12:46:32;;;;;;;4.13;0.85;;;14.90;55.70;;;;;;4995113;28;20456;-77
2022/03/31 12:49:08;;;;;;;4.40;0.82;;;15.00;55.70;;;;;;4995279;28;20466;-78
2022/03/31 12:51:48;;;;;;;5.38;0.80;;;15.10;55.90;;;;;;4995052;28;20035;-80
2022/03/31 12:54:52;;;;;;;5.85;0.90;;;15.30;56.10;;;;;;4996629;28;20078;-77
2022/03/31 12:57:21;;;;;;;5.65;1.08;;;15.50;56.30;;;;;;4954983;28;20058;-78
2022/03/31 13:00:12;;;;;;;2.60;0.60;;;15.70;56.30;;;;;;4998674;28;20046;-79
2022/03/31 13:07:28;;;;;;;8.07;1.73;;;15.90;56.50;;;;;;4907688;28;20045;-80
2022/03/31 13:11:23;;;;;;;;;;;;;;;;;;;;;
2022/03/31 13:24:48;;;;;;;9.90;1.85;;;16.40;56.60;;;;;;4900188;29;20600;-77
2022/03/31 13:27:14;;;;;;;5.80;1.25;;;16.40;56.30;;;;;;4900204;29;20040;-77
2022/03/31 13:29:40;;;;;;;4.30;0.70;;;16.50;56.10;;;;;;4900039;29;20507;-78
2022/03/31 13:32:09;;;;;;;6.05;0.95;;;16.50;55.90;;;;;;4938130;29;20055;-81
2022/03/31 13:34:35;;;;;;;6.57;0.70;;;16.60;55.60;;;;;;4938166;29;20126;-78
2022/03/31 13:37:04;;;;;;;4.93;0.82;;;16.70;55.70;;;;;;4987987;28;20058;-78
2022/03/31 13:39:35;;;;;;;8.55;0.90;;;16.80;55.70;;;;;;4998429;28;20050;-78
2022/03/31 13:42:01;;;;;;;4.43;0.98;;;16.90;55.60;;;;;;4997724;28;20058;-78
2022/03/31 13:44:28;;;;;;;4.15;1.02;;;17.00;55.50;;;;;;4980952;28;20054;-79